Time;durP1;ratioP1;P1;durP2;ratioP2;P2;SDS_P1;SDS_P2;PMS_P1;PMS_P2;Temp;Humidity;BMP_temperature;BMP_pressure;BME280_temperature;BME280_humidity;BME280_pressure;Samples;Min_cycle;Max_cycle;Signal;HPM_P1;HPM_P2
2022/09/09 00:00:38;;;;;;;15.35;9.10;;;;;;;;;;5051921;28;20055;-74
2022/09/09 00:03:17;;;;;;;18.15;9.43;;;;;;;;;;5079541;28;20020;-74
2022/09/09 00:06:08;;;;;;;16.83;9.13;;;;;;;;;;5054749;28;20036;-74
2022/09/09 00:08:47;;;;;;;15.05;8.82;;;;;;;;;;5063987;28;20027;-73
2022/09/09 00:11:16;;;;;;;18.88;8.70;;;;;;;;;;5065876;28;20033;-75
2022/09/09 00:13:48;;;;;;;15.68;7.75;;;;;;;;;;5076067;28;20495;-75
2022/09/09 00:16:28;;;;;;;13.32;8.90;;;;;;;;;;5048807;28;20028;-75
2022/09/09 00:18:59;;;;;;;15.30;8.30;;;;;;;;;;5074742;28;20390;-75
2022/09/09 00:21:32;;;;;;;19.45;8.50;;;;;;;;;;5077269;28;20110;-75
2022/09/09 00:23:58;;;;;;;14.95;8.68;;;;;;;;;;5060939;28;20119;-75
2022/09/09 00:26:40;;;;;;;18.92;8.35;;;;;;;;;;5076797;28;20050;-75
2022/09/09 00:29:15;;;;;;;15.20;8.23;;;;;;;;;;5076774;28;20071;-74
2022/09/09 00:31:40;;;;;;;17.38;8.23;;;;;;;;;;5045559;28;20503;-74
2022/09/09 00:34:13;;;;;;;11.73;7.55;;;;;;;;;;5049366;28;20025;-74
2022/09/09 00:36:39;;;;;;;15.77;7.95;;;;;;;;;;5085979;28;20046;-74
2022/09/09 00:39:05;;;;;;;14.45;8.55;;;;;;;;;;5060274;28;20020;-74
2022/09/09 00:41:37;;;;;;;15.23;8.60;;;;;;;;;;5065760;28;20097;-74
2022/09/09 00:44:13;;;;;;;17.02;8.13;;;;;;;;;;5080202;28;20051;-74
2022/09/09 00:47:04;;;;;;;16.83;8.13;;;;;;;;;;5048602;28;20038;-75
2022/09/09 00:49:48;;;;;;;15.63;8.25;;;;;;;;;;5074774;28;20020;-75
2022/09/09 00:52:19;;;;;;;;;;;;;;;;;;5065549;28;20110;-76
2022/09/09 00:54:57;;;;;;;12.93;8.32;;;;;;;;;;5057722;28;20004;-75
2022/09/09 00:57:28;;;;;;;11.70;8.85;;;;;;;;;;5045940;28;20107;-74
2022/09/09 01:00:14;;;;;;;15.15;8.55;;;;;;;;;;5075983;28;20124;-74
2022/09/09 01:02:52;;;;;;;15.13;8.57;;;;;;;;;;5058206;28;20029;-74
2022/09/09 01:05:36;;;;;;;15.25;8.98;;;;;;;;;;5071420;28;20024;-74
2022/09/09 01:08:02;;;;;;;;;;;;;;;;;;5055322;28;20458;-75
2022/09/09 01:10:41;;;;;;;12.57;8.55;;;;;;;;;;5054789;28;19970;-75
2022/09/09 01:13:11;;;;;;;14.68;8.65;;;;;;;;;;5038802;28;20036;-75
2022/09/09 01:15:37;;;;;;;14.77;8.57;;;;;;;;;;5030634;28;20025;-75
2022/09/09 01:18:07;;;;;;;13.55;8.68;;;;;;;;;;5071568;28;20329;-74
2022/09/09 01:20:44;;;;;;;14.90;8.77;;;;;;;;;;5054568;28;20107;-74
2022/09/09 01:23:20;;;;;;;13.60;8.80;;;;;;;;;;5072412;28;20036;-74
2022/09/09 01:26:00;;;;;;;22.23;9.77;;;;;;;;;;5064195;28;20535;-75
2022/09/09 01:28:26;;;;;;;13.07;9.32;;;;;;;;;;5070812;28;20085;-75
2022/09/09 01:30:52;;;;;;;15.50;8.68;;;;;;;;;;5054439;28;20039;-74
2022/09/09 01:33:17;;;;;;;11.43;8.20;;;;;;;;;;5051319;28;20033;-75
2022/09/09 01:35:50;;;;;;;13.15;8.82;;;;;;;;;;5075207;28;20024;-75
2022/09/09 01:38:16;;;;;;;15.25;8.55;;;;;;;;;;5051313;28;20024;-75
2022/09/09 01:40:41;;;;;;;13.45;9.65;;;;;;;;;;5063622;28;20047;-75
2022/09/09 01:43:07;;;;;;;16.17;9.57;;;;;;;;;;5056371;28;20115;-75
2022/09/09 01:45:32;;;;;;;14.70;9.98;;;;;;;;;;5055213;28;20028;-75
2022/09/09 01:47:58;;;;;;;11.70;8.77;;;;;;;;;;5040266;28;20032;-75
2022/09/09 01:50:23;;;;;;;11.38;8.82;;;;;;;;;;5043792;28;20070;-75
2022/09/09 01:52:52;;;;;;;13.85;9.27;;;;;;;;;;5038134;28;20033;-75
2022/09/09 01:55:21;;;;;;;14.85;9.77;;;;;;;;;;5054336;28;20034;-75
2022/09/09 01:58:00;;;;;;;10.70;8.70;;;;;;;;;;5060635;28;20460;-75
2022/09/09 02:00:26;;;;;;;15.38;8.93;;;;;;;;;;5075578;28;20070;-75
2022/09/09 02:03:24;;;;;;;10.55;8.13;;;;;;;;;;5043523;28;20040;-75
2022/09/09 02:06:05;;;;;;;12.65;8.43;;;;;;;;;;5040363;28;20024;-75
2022/09/09 02:08:43;;;;;;;15.85;8.88;;;;;;;;;;5060526;28;20035;-75
2022/09/09 02:11:13;;;;;;;12.07;8.02;;;;;;;;;;5057922;28;20035;-75
2022/09/09 02:13:39;;;;;;;15.07;9.40;;;;;;;;;;5060445;28;20027;-75
2022/09/09 02:16:08;;;;;;;15.70;10.00;;;;;;;;;;5074767;28;20110;-75
2022/09/09 02:18:47;;;;;;;14.45;9.18;;;;;;;;;;5038302;28;20078;-75
2022/09/09 02:21:13;;;;;;;12.75;8.45;;;;;;;;;;5054241;28;20024;-75
2022/09/09 02:23:40;;;;;;;14.30;8.57;;;;;;;;;;5059071;28;20443;-75
2022/09/09 02:26:05;;;;;;;15.05;10.00;;;;;;;;;;5060135;28;20074;-75
2022/09/09 02:28:31;;;;;;;13.95;8.82;;;;;;;;;;5049683;28;20036;-75
2022/09/09 02:30:58;;;;;;;14.98;9.00;;;;;;;;;;5042631;28;20092;-75
2022/09/09 02:33:24;;;;;;;10.57;8.13;;;;;;;;;;5058858;28;20028;-76
2022/09/09 02:35:51;;;;;;;15.13;9.00;;;;;;;;;;5044617;28;20551;-75
2022/09/09 02:38:16;;;;;;;14.90;9.82;;;;;;;;;;5044071;28;20030;-75
2022/09/09 02:40:41;;;;;;;12.95;9.23;;;;;;;;;;5055788;28;20070;-75
2022/09/09 02:43:07;;;;;;;12.13;8.80;;;;;;;;;;5073054;28;20761;-75
2022/09/09 02:45:42;;;;;;;19.35;9.48;;;;;;;;;;5075430;28;20051;-74
2022/09/09 02:48:20;;;;;;;11.40;7.97;;;;;;;;;;5061697;28;20029;-75
2022/09/09 02:51:18;;;;;;;16.48;9.52;;;;;;;;;;5056959;28;20040;-75
2022/09/09 02:53:47;;;;;;;22.65;10.35;;;;;;;;;;5042655;28;20609;-75
2022/09/09 02:56:15;;;;;;;13.10;9.82;;;;;;;;;;5057841;28;20148;-75
2022/09/09 02:58:40;;;;;;;16.33;10.30;;;;;;;;;;5057687;28;20224;-75
2022/09/09 03:01:06;;;;;;;13.80;9.60;;;;;;;;;;5073835;28;20103;-74
2022/09/09 03:03:31;;;;;;;14.38;10.05;;;;;;;;;;5062275;28;20052;-75
2022/09/09 03:05:57;;;;;;;18.80;10.65;;;;;;;;;;5024239;28;20546;-75
2022/09/09 03:08:22;;;;;;;18.38;11.38;;;;;;;;;;5055389;28;20127;-75
2022/09/09 03:10:47;;;;;;;17.63;10.77;;;;;;;;;;5050339;28;20037;-75
2022/09/09 03:13:15;;;;;;;18.27;12.02;;;;;;;;;;5074976;28;20087;-75
2022/09/09 03:15:40;;;;;;;17.98;12.07;;;;;;;;;;5061570;28;20031;-75
2022/09/09 03:18:05;;;;;;;19.00;12.55;;;;;;;;;;5074824;28;20032;-74
2022/09/09 03:20:31;;;;;;;21.90;12.38;;;;;;;;;;5060759;28;20024;-75
2022/09/09 03:22:57;;;;;;;21.17;12.75;;;;;;;;;;5057707;28;20396;-74
2022/09/09 03:25:26;;;;;;;23.20;12.95;;;;;;;;;;5058841;28;20037;-75
2022/09/09 03:27:54;;;;;;;15.85;12.15;;;;;;;;;;5053158;28;20083;-74
2022/09/09 03:30:23;;;;;;;27.60;12.93;;;;;;;;;;5041547;28;20082;-75
2022/09/09 03:32:48;;;;;;;19.48;12.77;;;;;;;;;;5070093;28;20458;-75
2022/09/09 03:35:15;;;;;;;19.15;12.20;;;;;;;;;;5073764;28;20124;-74
2022/09/09 03:37:41;;;;;;;20.10;13.98;;;;;;;;;;5071111;28;20506;-75
2022/09/09 03:40:08;;;;;;;21.95;15.40;;;;;;;;;;5074917;28;20518;-74
2022/09/09 03:42:33;;;;;;;20.23;14.48;;;;;;;;;;5037850;28;20036;-75
2022/09/09 03:44:59;;;;;;;22.60;15.38;;;;;;;;;;5057501;28;20035;-74
2022/09/09 03:47:24;;;;;;;27.40;14.93;;;;;;;;;;5055110;28;20110;-75
2022/09/09 03:49:50;;;;;;;22.48;15.10;;;;;;;;;;5076316;28;20059;-74
2022/09/09 03:52:15;;;;;;;20.05;12.63;;;;;;;;;;5059718;28;20038;-74
2022/09/09 03:54:42;;;;;;;22.17;14.52;;;;;;;;;;5058373;28;20103;-75
2022/09/09 03:57:08;;;;;;;19.08;12.77;;;;;;;;;;5052163;28;20027;-75
2022/09/09 03:59:34;;;;;;;25.90;14.93;;;;;;;;;;5046135;28;20020;-75
2022/09/09 04:02:00;;;;;;;24.08;15.93;;;;;;;;;;5077556;28;20037;-75
2022/09/09 04:04:26;;;;;;;23.05;16.92;;;;;;;;;;5070401;28;20036;-75
2022/09/09 04:06:51;;;;;;;25.05;17.30;;;;;;;;;;5076800;28;20404;-73
2022/09/09 04:09:17;;;;;;;28.55;17.58;;;;;;;;;;5042178;28;20024;-74
2022/09/09 04:11:42;;;;;;;28.23;18.45;;;;;;;;;;5059675;28;20490;-74
2022/09/09 04:14:08;;;;;;;26.85;18.30;;;;;;;;;;5056391;28;20597;-75
2022/09/09 04:16:37;;;;;;;25.60;18.58;;;;;;;;;;5075580;28;20035;-75
2022/09/09 04:19:04;;;;;;;26.80;18.80;;;;;;;;;;5040815;28;20028;-75
2022/09/09 04:21:30;;;;;;;28.52;18.27;;;;;;;;;;5040031;28;20041;-75
2022/09/09 04:23:56;;;;;;;28.63;19.67;;;;;;;;;;5070127;28;20097;-75
2022/09/09 04:26:21;;;;;;;24.65;18.65;;;;;;;;;;5051216;28;20098;-75
2022/09/09 04:28:47;;;;;;;27.20;19.15;;;;;;;;;;5035909;28;20103;-74
2022/09/09 04:31:18;;;;;;;27.08;18.73;;;;;;;;;;5052895;28;20032;-74
2022/09/09 04:33:43;;;;;;;24.75;18.92;;;;;;;;;;5041731;28;20028;-74
2022/09/09 04:36:11;;;;;;;28.83;18.15;;;;;;;;;;5076818;28;20033;-74
2022/09/09 04:38:36;;;;;;;26.20;17.67;;;;;;;;;;5078796;28;20107;-75
2022/09/09 04:41:01;;;;;;;27.70;18.70;;;;;;;;;;5067391;28;20052;-79
2022/09/09 04:43:27;;;;;;;27.17;18.13;;;;;;;;;;5041788;28;20075;-79
2022/09/09 04:45:52;;;;;;;26.23;18.50;;;;;;;;;;5074299;28;20055;-74
2022/09/09 04:48:18;;;;;;;29.77;18.20;;;;;;;;;;5069056;28;20478;-74
2022/09/09 04:50:43;;;;;;;27.55;18.90;;;;;;;;;;5075960;28;20018;-74
2022/09/09 04:53:09;;;;;;;24.52;17.38;;;;;;;;;;5062926;28;20028;-74
2022/09/09 04:55:37;;;;;;;28.30;19.20;;;;;;;;;;5055642;28;20036;-74
2022/09/09 04:58:10;;;;;;;29.52;19.92;;;;;;;;;;5073532;28;20105;-74
2022/09/09 05:00:35;;;;;;;29.92;18.40;;;;;;;;;;5053667;28;20487;-75
2022/09/09 05:03:08;;;;;;;29.67;18.45;;;;;;;;;;5060571;28;20035;-75
2022/09/09 05:05:36;;;;;;;29.80;18.50;;;;;;;;;;5071789;28;20379;-74
2022/09/09 05:08:06;;;;;;;28.40;18.25;;;;;;;;;;5075329;28;20403;-74
2022/09/09 05:10:32;;;;;;;28.63;18.85;;;;;;;;;;5043490;28;20383;-74
2022/09/09 05:12:57;;;;;;;28.30;19.77;;;;;;;;;;5031489;28;20032;-74
2022/09/09 05:15:22;;;;;;;30.15;19.60;;;;;;;;;;5076220;28;20528;-75
2022/09/09 05:17:48;;;;;;;27.05;19.05;;;;;;;;;;5052991;28;20047;-74
2022/09/09 05:20:13;;;;;;;25.23;18.48;;;;;;;;;;5077502;28;20024;-74
2022/09/09 05:22:40;;;;;;;24.85;17.77;;;;;;;;;;5062745;28;20510;-75
2022/09/09 05:25:05;;;;;;;24.92;18.02;;;;;;;;;;5074939;28;20031;-74
2022/09/09 05:27:31;;;;;;;21.73;16.55;;;;;;;;;;5075307;28;20028;-74
2022/09/09 05:29:59;;;;;;;23.85;16.58;;;;;;;;;;5046569;28;20499;-74
2022/09/09 05:32:26;;;;;;;29.65;17.27;;;;;;;;;;5044878;28;20082;-75
2022/09/09 05:34:52;;;;;;;23.83;17.00;;;;;;;;;;5045995;28;20123;-75
2022/09/09 05:37:18;;;;;;;21.13;15.95;;;;;;;;;;5053425;28;20031;-75
2022/09/09 05:39:43;;;;;;;23.15;15.40;;;;;;;;;;5074863;28;20078;-74
2022/09/09 05:42:09;;;;;;;22.38;15.23;;;;;;;;;;5060057;28;20028;-75
2022/09/09 05:44:34;;;;;;;21.38;15.90;;;;;;;;;;5074390;28;20036;-75
2022/09/09 05:47:00;;;;;;;21.58;14.63;;;;;;;;;;5059409;28;20063;-74
2022/09/09 05:49:25;;;;;;;23.33;14.75;;;;;;;;;;5044222;28;20463;-74
2022/09/09 05:51:50;;;;;;;21.90;16.20;;;;;;;;;;5057817;28;20483;-74
2022/09/09 05:54:16;;;;;;;20.42;13.88;;;;;;;;;;5058014;28;20372;-75
2022/09/09 05:56:42;;;;;;;20.20;13.85;;;;;;;;;;5073407;28;20029;-75
2022/09/09 05:59:07;;;;;;;18.13;13.63;;;;;;;;;;5020839;28;20108;-75
2022/09/09 06:01:34;;;;;;;19.80;13.43;;;;;;;;;;5053450;28;20553;-75
2022/09/09 06:04:00;;;;;;;36.15;14.02;;;;;;;;;;5032642;28;20029;-75
2022/09/09 06:06:27;;;;;;;17.95;12.98;;;;;;;;;;5049102;28;20395;-75
2022/09/09 06:08:54;;;;;;;15.60;12.20;;;;;;;;;;5037059;28;20027;-75
2022/09/09 06:11:21;;;;;;;17.40;12.43;;;;;;;;;;5038917;28;20070;-75
2022/09/09 06:13:47;;;;;;;16.15;12.20;;;;;;;;;;5081488;28;20103;-75
2022/09/09 06:16:17;;;;;;;14.48;10.50;;;;;;;;;;5075712;28;20089;-75
2022/09/09 06:18:43;;;;;;;16.73;10.75;;;;;;;;;;5039074;28;20032;-74
2022/09/09 06:21:17;;;;;;;14.45;10.15;;;;;;;;;;5077337;28;20035;-73
2022/09/09 06:23:43;;;;;;;15.65;9.13;;;;;;;;;;5047366;28;20140;-74
2022/09/09 06:26:19;;;;;;;15.93;10.13;;;;;;;;;;5059997;28;20050;-75
2022/09/09 06:28:45;;;;;;;12.52;9.20;;;;;;;;;;5066722;28;20056;-75
2022/09/09 06:31:11;;;;;;;13.43;9.45;;;;;;;;;;5032528;28;20029;-75
2022/09/09 06:33:46;;;;;;;17.13;9.43;;;;;;;;;;5031640;28;20105;-75
2022/09/09 06:36:16;;;;;;;12.18;8.35;;;;;;;;;;5061294;28;20028;-75
2022/09/09 06:38:42;;;;;;;13.52;7.57;;;;;;;;;;5033367;28;20047;-75
2022/09/09 06:41:08;;;;;;;13.57;7.80;;;;;;;;;;5051799;28;20383;-75
2022/09/09 06:43:34;;;;;;;13.27;6.70;;;;;;;;;;5033037;28;20025;-75
2022/09/09 06:46:06;;;;;;;13.45;6.80;;;;;;;;;;5036602;28;20044;-75
2022/09/09 06:48:37;;;;;;;16.63;8.25;;;;;;;;;;5051083;28;20147;-75
2022/09/09 06:51:08;;;;;;;11.20;6.68;;;;;;;;;;5036895;28;20094;-75
2022/09/09 06:53:34;;;;;;;9.50;5.43;;;;;;;;;;5052700;28;20031;-75
2022/09/09 06:56:18;;;;;;;7.65;5.55;;;;;;;;;;5035070;28;20043;-75
2022/09/09 06:58:46;;;;;;;11.23;5.55;;;;;;;;;;5053058;28;20021;-75
2022/09/09 07:01:13;;;;;;;10.05;5.78;;;;;;;;;;5044365;28;20589;-75
2022/09/09 07:03:39;;;;;;;10.85;4.90;;;;;;;;;;5051989;28;20024;-74
2022/09/09 07:06:09;;;;;;;12.15;4.38;;;;;;;;;;5052083;28;20101;-74
2022/09/09 07:08:37;;;;;;;11.73;5.22;;;;;;;;;;5035749;28;20021;-74
2022/09/09 07:11:04;;;;;;;10.68;4.75;;;;;;;;;;5056929;28;20019;-74
2022/09/09 07:13:31;;;;;;;8.68;4.38;;;;;;;;;;5062489;28;20113;-74
2022/09/09 07:16:06;;;;;;;12.70;4.35;;;;;;;;;;5079942;28;20496;-76
2022/09/09 07:18:31;;;;;;;9.65;4.05;;;;;;;;;;5041091;28;20024;-76
2022/09/09 07:20:57;;;;;;;10.30;4.63;;;;;;;;;;5062106;28;20392;-76
2022/09/09 07:23:23;;;;;;;12.38;4.07;;;;;;;;;;5045652;28;20044;-76
2022/09/09 07:25:48;;;;;;;9.50;3.47;;;;;;;;;;5055246;28;20512;-76
2022/09/09 07:28:14;;;;;;;9.98;4.28;;;;;;;;;;5061820;28;20534;-76
2022/09/09 07:30:40;;;;;;;13.50;4.05;;;;;;;;;;5066667;28;20064;-76
2022/09/09 07:33:09;;;;;;;9.23;3.92;;;;;;;;;;5049075;28;20465;-76
2022/09/09 07:35:37;;;;;;;8.30;3.58;;;;;;;;;;5052470;28;20559;-76
2022/09/09 07:38:06;;;;;;;12.10;3.58;;;;;;;;;;5051257;28;20059;-76
2022/09/09 07:40:32;;;;;;;12.25;3.40;;;;;;;;;;5063038;28;20035;-75
2022/09/09 07:43:01;;;;;;;11.07;3.67;;;;;;;;;;5069956;28;20032;-75
2022/09/09 07:45:28;;;;;;;10.55;3.30;;;;;;;;;;5062365;28;20316;-75
2022/09/09 07:47:53;;;;;;;10.45;3.58;;;;;;;;;;5062698;28;20029;-75
2022/09/09 07:50:19;;;;;;;9.98;3.08;;;;;;;;;;5032248;28;20059;-76
2022/09/09 07:52:44;;;;;;;13.80;3.25;;;;;;;;;;5068650;28;20076;-75
2022/09/09 07:55:10;;;;;;;12.63;3.13;;;;;;;;;;5052796;28;20486;-75
2022/09/09 07:57:36;;;;;;;10.45;3.00;;;;;;;;;;5073645;28;20028;-75
2022/09/09 08:00:03;;;;;;;13.88;3.28;;;;;;;;;;5067360;28;20112;-76
2022/09/09 08:02:29;;;;;;;7.85;2.90;;;;;;;;;;5036557;28;20356;-75
2022/09/09 08:04:54;;;;;;;10.48;2.70;;;;;;;;;;5057839;28;20035;-75
2022/09/09 08:07:21;;;;;;;10.30;3.08;;;;;;;;;;5035270;28;20024;-75
2022/09/09 08:09:46;;;;;;;8.60;2.92;;;;;;;;;;5052929;28;20423;-75
2022/09/09 08:12:12;;;;;;;12.07;2.95;;;;;;;;;;5039088;28;20029;-76
2022/09/09 08:14:38;;;;;;;12.30;3.22;;;;;;;;;;5054506;28;20032;-75
2022/09/09 08:17:04;;;;;;;9.82;3.30;;;;;;;;;;5046801;28;20118;-76
2022/09/09 08:19:32;;;;;;;12.30;2.45;;;;;;;;;;5033862;28;20041;-76
2022/09/09 08:21:58;;;;;;;10.63;2.88;;;;;;;;;;5055119;28;20036;-76
2022/09/09 08:24:26;;;;;;;7.97;2.97;;;;;;;;;;5043747;28;20031;-75
2022/09/09 08:26:52;;;;;;;9.95;2.50;;;;;;;;;;5079221;28;20474;-76
2022/09/09 08:29:17;;;;;;;14.00;2.78;;;;;;;;;;5073534;28;20498;-75
2022/09/09 08:31:45;;;;;;;13.52;3.03;;;;;;;;;;5031203;28;20040;-76
2022/09/09 08:34:10;;;;;;;13.00;3.28;;;;;;;;;;5041129;28;20787;-76
2022/09/09 08:36:38;;;;;;;8.52;2.58;;;;;;;;;;5034943;28;20017;-75
2022/09/09 08:39:04;;;;;;;10.18;2.83;;;;;;;;;;5038732;28;20029;-75
2022/09/09 08:42:00;;;;;;;9.35;2.75;;;;;;;;;;5054427;28;20161;-75
2022/09/09 08:44:40;;;;;;;13.30;3.13;;;;;;;;;;5072458;28;20028;-75
2022/09/09 08:47:18;;;;;;;15.48;3.65;;;;;;;;;;5050729;28;20064;-75
2022/09/09 08:50:08;;;;;;;10.57;2.30;;;;;;;;;;5070189;28;20043;-75
2022/09/09 08:52:41;;;;;;;13.10;2.90;;;;;;;;;;5072075;28;20029;-75
2022/09/09 08:55:22;;;;;;;;;;;;;;;;;;5037791;28;20036;-75
2022/09/09 08:57:49;;;;;;;10.90;2.28;;;;;;;;;;5073404;28;20014;-75
2022/09/09 09:00:15;;;;;;;9.07;2.80;;;;;;;;;;5037098;28;20028;-75
2022/09/09 09:02:59;;;;;;;11.70;2.47;;;;;;;;;;5026590;28;20354;-75
2022/09/09 09:05:31;;;;;;;11.38;2.35;;;;;;;;;;5051313;28;20702;-75
2022/09/09 09:08:00;;;;;;;11.68;2.50;;;;;;;;;;5056525;28;20083;-75
2022/09/09 09:11:01;;;;;;;9.43;2.58;;;;;;;;;;5068627;28;20029;-75
2022/09/09 09:13:49;;;;;;;12.02;2.45;;;;;;;;;;5017380;28;20116;-75
2022/09/09 09:16:32;;;;;;;11.05;2.17;;;;;;;;;;5075606;28;20044;-75
2022/09/09 09:18:57;;;;;;;12.30;2.60;;;;;;;;;;5075381;28;20028;-76
2022/09/09 09:21:45;;;;;;;11.10;2.15;;;;;;;;;;5056728;28;21076;-75
2022/09/09 09:24:20;;;;;;;10.15;1.90;;;;;;;;;;5057161;28;20035;-77
2022/09/09 09:26:46;;;;;;;12.88;2.20;;;;;;;;;;5055569;28;20029;-74
2022/09/09 09:29:15;;;;;;;10.38;2.10;;;;;;;;;;5070243;28;20040;-74
2022/09/09 09:31:55;;;;;;;8.70;2.00;;;;;;;;;;5046225;28;20385;-75
2022/09/09 09:34:20;;;;;;;12.50;3.13;;;;;;;;;;5059234;28;20611;-76
2022/09/09 09:37:17;;;;;;;7.90;2.10;;;;;;;;;;5023453;28;20029;-75
2022/09/09 09:39:42;;;;;;;9.02;2.17;;;;;;;;;;5033877;28;20076;-76
2022/09/09 09:42:17;;;;;;;7.07;1.90;;;;;;;;;;5043346;28;20376;-74
2022/09/09 09:44:42;;;;;;;11.45;2.25;;;;;;;;;;5047874;28;20116;-74
2022/09/09 09:47:29;;;;;;;11.60;2.33;;;;;;;;;;5035090;28;20528;-74
2022/09/09 09:49:59;;;;;;;11.57;2.72;;;;;;;;;;5065333;28;20037;-74
2022/09/09 09:52:29;;;;;;;8.27;2.03;;;;;;;;;;5038660;28;20021;-74
2022/09/09 09:54:54;;;;;;;11.48;2.10;;;;;;;;;;5036689;28;20395;-74
2022/09/09 09:57:24;;;;;;;9.77;1.90;;;;;;;;;;5042993;28;20021;-74
2022/09/09 10:00:05;;;;;;;14.43;2.40;;;;;;;;;;5050078;28;20385;-74
2022/09/09 10:02:36;;;;;;;13.55;2.90;;;;;;;;;;5056591;28;20028;-74
2022/09/09 10:05:03;;;;;;;13.25;2.35;;;;;;;;;;5076593;28;20028;-77
2022/09/09 10:07:29;;;;;;;10.15;2.55;;;;;;;;;;5064281;28;20476;-77
2022/09/09 10:09:56;;;;;;;10.00;2.05;;;;;;;;;;5036574;28;20048;-75
2022/09/09 10:12:30;;;;;;;11.02;2.10;;;;;;;;;;5032459;28;20028;-76
2022/09/09 10:15:19;;;;;;;9.95;1.85;;;;;;;;;;5074749;28;20441;-76
2022/09/09 10:18:13;;;;;;;16.20;2.95;;;;;;;;;;5067482;28;20540;-76
2022/09/09 10:20:44;;;;;;;13.13;2.17;;;;;;;;;;5078664;28;20475;-76
2022/09/09 10:23:20;;;;;;;9.35;2.00;;;;;;;;;;5076760;28;20045;-76
2022/09/09 10:25:58;;;;;;;11.82;2.60;;;;;;;;;;5054088;28;20499;-76
2022/09/09 10:28:37;;;;;;;14.43;2.63;;;;;;;;;;5057950;28;20074;-77
2022/09/09 10:31:02;;;;;;;7.22;1.88;;;;;;;;;;5074318;28;20055;-76
2022/09/09 10:33:30;;;;;;;8.43;2.33;;;;;;;;;;5066870;28;20032;-71
2022/09/09 10:36:13;;;;;;;10.48;1.98;;;;;;;;;;5068947;28;20040;-71
2022/09/09 10:38:43;;;;;;;11.52;2.10;;;;;;;;;;5035809;28;20074;-71
2022/09/09 10:41:27;;;;;;;11.43;2.50;;;;;;;;;;5051442;28;20032;-72
2022/09/09 10:43:58;;;;;;;8.80;1.98;;;;;;;;;;5069167;28;20043;-72
2022/09/09 10:46:28;;;;;;;8.25;1.77;;;;;;;;;;5068750;28;20499;-72
2022/09/09 10:49:14;;;;;;;11.15;2.10;;;;;;;;;;5068393;28;20044;-72
2022/09/09 10:51:52;;;;;;;10.32;2.53;;;;;;;;;;5073005;28;20487;-73
2022/09/09 10:54:39;;;;;;;10.80;2.05;;;;;;;;;;5075921;28;20084;-72
2022/09/09 10:57:10;;;;;;;14.93;2.67;;;;;;;;;;5077906;28;20034;-72
2022/09/09 10:59:42;;;;;;;9.73;1.95;;;;;;;;;;5044835;28;20074;-73
2022/09/09 11:02:19;;;;;;;12.85;2.75;;;;;;;;;;5037982;28;20040;-73
2022/09/09 11:04:48;;;;;;;9.60;2.33;;;;;;;;;;5057391;28;20032;-73
2022/09/09 11:07:16;;;;;;;8.32;1.90;;;;;;;;;;5051583;28;20052;-73
2022/09/09 11:09:44;;;;;;;5.35;1.50;;;;;;;;;;5050977;28;20074;-73
2022/09/09 11:12:13;;;;;;;7.40;2.17;;;;;;;;;;5032652;28;20017;-73
2022/09/09 11:14:43;;;;;;;8.43;1.80;;;;;;;;;;5050686;28;20032;-73
2022/09/09 11:17:30;;;;;;;7.20;1.73;;;;;;;;;;5051955;28;20051;-73
2022/09/09 11:19:55;;;;;;;7.00;1.95;;;;;;;;;;5052619;28;20041;-73
2022/09/09 11:22:38;;;;;;;9.68;1.92;;;;;;;;;;5068137;28;20059;-73
2022/09/09 11:25:17;;;;;;;11.98;1.90;;;;;;;;;;5062161;28;20028;-73
2022/09/09 11:28:17;;;;;;;6.57;1.58;;;;;;;;;;5050298;28;20041;-73
2022/09/09 11:31:17;;;;;;;8.50;1.70;;;;;;;;;;5052563;28;20073;-73
2022/09/09 11:34:02;;;;;;;6.18;1.85;;;;;;;;;;5059962;28;20048;-73
2022/09/09 11:37:05;;;;;;;11.38;2.10;;;;;;;;;;5061797;28;20035;-73
2022/09/09 11:39:30;;;;;;;8.27;1.77;;;;;;;;;;5063745;28;20036;-73
2022/09/09 11:42:25;;;;;;;10.93;1.58;;;;;;;;;;5069361;28;20290;-73
2022/09/09 11:44:51;;;;;;;10.63;2.38;;;;;;;;;;5069259;28;20078;-73
2022/09/09 11:47:36;;;;;;;5.60;1.48;;;;;;;;;;5035202;28;20501;-73
2022/09/09 11:50:10;;;;;;;10.13;2.17;;;;;;;;;;5064938;28;20048;-73
2022/09/09 11:52:43;;;;;;;7.43;1.63;;;;;;;;;;5050729;28;20028;-73
2022/09/09 11:55:29;;;;;;;9.05;2.15;;;;;;;;;;5068180;28;20134;-73
2022/09/09 11:58:03;;;;;;;7.55;1.77;;;;;;;;;;5067584;28;20032;-73
2022/09/09 12:00:40;;;;;;;9.05;2.20;;;;;;;;;;5051286;28;20447;-73
2022/09/09 12:03:05;;;;;;;7.50;1.35;;;;;;;;;;5069353;28;20036;-73
2022/09/09 12:05:41;;;;;;;4.80;1.23;;;;;;;;;;5033729;28;20029;-72
2022/09/09 12:08:07;;;;;;;11.77;1.75;;;;;;;;;;5050541;28;20029;-75
2022/09/09 12:10:33;;;;;;;9.00;2.13;;;;;;;;;;5051275;28;20042;-75
2022/09/09 12:13:19;;;;;;;7.13;1.67;;;;;;;;;;5050950;28;20105;-75
2022/09/09 12:15:53;;;;;;;8.60;1.67;;;;;;;;;;5067771;28;20454;-75
2022/09/09 12:18:23;;;;;;;14.10;2.00;;;;;;;;;;5067722;28;20032;-74
2022/09/09 12:21:01;;;;;;;10.43;1.98;;;;;;;;;;5055155;28;20071;-74
2022/09/09 12:23:33;;;;;;;7.65;2.05;;;;;;;;;;5058308;28;20107;-73
2022/09/09 12:26:12;;;;;;;5.93;2.55;;;;;;;;;;5043085;28;20033;-74
2022/09/09 12:28:50;;;;;;;7.55;1.63;;;;;;;;;;5047866;28;20090;-73
2022/09/09 12:31:34;;;;;;;9.65;1.80;;;;;;;;;;5066988;28;20516;-74
2022/09/09 12:34:16;;;;;;;9.38;1.50;;;;;;;;;;5064728;28;20548;-73
2022/09/09 12:36:42;;;;;;;7.80;1.98;;;;;;;;;;5033640;28;20107;-74
2022/09/09 12:39:17;;;;;;;7.13;1.48;;;;;;;;;;5051511;28;20950;-74
2022/09/09 12:41:50;;;;;;;5.65;1.38;;;;;;;;;;5045667;28;20040;-74
2022/09/09 12:44:16;;;;;;;6.32;1.35;;;;;;;;;;5067953;28;20027;-74
2022/09/09 12:46:42;;;;;;;9.13;1.42;;;;;;;;;;5055289;28;20116;-74
2022/09/09 12:49:26;;;;;;;8.82;1.95;;;;;;;;;;5053524;28;20016;-74
2022/09/09 12:51:51;;;;;;;5.50;1.35;;;;;;;;;;5053743;28;20395;-74
2022/09/09 12:54:17;;;;;;;6.70;1.80;;;;;;;;;;5071801;28;20067;-74
2022/09/09 12:56:47;;;;;;;7.90;2.00;;;;;;;;;;5038189;28;20036;-74
2022/09/09 12:59:24;;;;;;;12.65;1.92;;;;;;;;;;5049867;28;20123;-73
2022/09/09 13:01:56;;;;;;;11.27;2.35;;;;;;;;;;5055930;28;20042;-72
2022/09/09 13:04:24;;;;;;;7.38;2.20;;;;;;;;;;5024406;28;20035;-73
2022/09/09 13:06:49;;;;;;;5.28;1.60;;;;;;;;;;5068214;28;20033;-73
2022/09/09 13:09:15;;;;;;;7.90;1.70;;;;;;;;;;5052002;28;20378;-73
2022/09/09 13:11:49;;;;;;;7.68;1.80;;;;;;;;;;5053781;28;20024;-73
2022/09/09 13:14:19;;;;;;;7.28;1.67;;;;;;;;;;5054379;28;20020;-73
2022/09/09 13:16:56;;;;;;;6.82;1.50;;;;;;;;;;5050578;28;20078;-73
2022/09/09 13:19:22;;;;;;;8.25;1.25;;;;;;;;;;5053024;28;20497;-73
2022/09/09 13:21:47;;;;;;;3.60;1.08;;;;;;;;;;5036819;28;20108;-73
2022/09/09 13:24:29;;;;;;;3.28;0.95;;;;;;;;;;5037695;28;20106;-73
2022/09/09 13:27:01;;;;;;;3.72;1.13;;;;;;;;;;5064641;28;20033;-73
2022/09/09 13:29:27;;;;;;;6.10;1.30;;;;;;;;;;5070631;28;20051;-73
2022/09/09 13:31:57;;;;;;;6.32;0.70;;;;;;;;;;5066860;28;20127;-73
2022/09/09 13:34:29;;;;;;;3.95;0.80;;;;;;;;;;5064910;28;20032;-77
2022/09/09 13:36:57;;;;;;;;;;;;;;;;;;5052852;28;20462;-77
2022/09/09 13:39:23;;;;;;;4.72;1.10;;;;;;;;;;5078661;28;19967;-77
2022/09/09 13:41:48;;;;;;;6.47;1.42;;;;;;;;;;5056584;28;20052;-77
2022/09/09 13:44:19;;;;;;;7.18;0.85;;;;;;;;;;5053745;28;20107;-77
2022/09/09 13:46:45;;;;;;;7.53;0.93;;;;;;;;;;5056948;28;20032;-75
2022/09/09 13:49:11;;;;;;;4.70;1.13;;;;;;;;;;5077714;28;20523;-75
2022/09/09 13:51:46;;;;;;;4.85;1.17;;;;;;;;;;5073730;28;20055;-75
2022/09/09 13:54:12;;;;;;;4.10;0.90;;;;;;;;;;5040047;28;20036;-75
2022/09/09 13:56:38;;;;;;;4.25;1.20;;;;;;;;;;5052977;28;20110;-74
2022/09/09 13:59:05;;;;;;;6.70;1.33;;;;;;;;;;5036631;28;20025;-74
2022/09/09 14:01:31;;;;;;;4.60;1.17;;;;;;;;;;5053070;28;20024;-73
2022/09/09 14:03:56;;;;;;;8.38;1.30;;;;;;;;;;5052769;28;20115;-73
2022/09/09 14:06:21;;;;;;;4.03;1.10;;;;;;;;;;5053016;28;20091;-73
2022/09/09 14:08:48;;;;;;;6.85;1.00;;;;;;;;;;5052594;28;20063;-73
2022/09/09 14:11:13;;;;;;;3.20;0.80;;;;;;;;;;5052695;28;20554;-73
2022/09/09 14:13:39;;;;;;;5.03;1.17;;;;;;;;;;5071088;28;20104;-73
2022/09/09 14:16:05;;;;;;;4.28;1.25;;;;;;;;;;5069836;28;20028;-73
2022/09/09 14:18:30;;;;;;;6.43;1.45;;;;;;;;;;5069135;28;20035;-73
2022/09/09 14:20:57;;;;;;;6.85;1.88;;;;;;;;;;5036499;28;20111;-73
2022/09/09 14:23:22;;;;;;;4.28;1.20;;;;;;;;;;5070406;28;20029;-74
2022/09/09 14:25:48;;;;;;;3.08;1.05;;;;;;;;;;5069839;28;20020;-73
2022/09/09 14:28:14;;;;;;;5.57;1.60;;;;;;;;;;5053390;28;20043;-73
2022/09/09 14:30:40;;;;;;;2.70;0.98;;;;;;;;;;5052602;28;20656;-73
2022/09/09 14:33:05;;;;;;;4.55;1.20;;;;;;;;;;5051871;28;20490;-74
2022/09/09 14:35:30;;;;;;;4.65;1.05;;;;;;;;;;5052727;28;20719;-74
2022/09/09 14:37:56;;;;;;;4.68;1.25;;;;;;;;;;5069224;28;20063;-73
2022/09/09 14:40:21;;;;;;;4.30;1.00;;;;;;;;;;5068434;28;20059;-73
2022/09/09 14:42:47;;;;;;;4.78;1.08;;;;;;;;;;5068619;28;20130;-73
2022/09/09 14:45:12;;;;;;;4.10;1.13;;;;;;;;;;5069317;28;20148;-73
2022/09/09 14:47:37;;;;;;;5.72;1.17;;;;;;;;;;5068553;28;20131;-73
2022/09/09 14:50:04;;;;;;;5.53;1.65;;;;;;;;;;5052509;28;20048;-74